Aviation Digital Data Service (ADDS)

Output produced by METARs form (2224 UTC 23 March 2019)
found at http://www.aviationweather.gov/metar/data/
 
METAR text: HBBA 221800Z 18004KT 9999 FEW025TCU FEW030CB BKN100 26/23 Q1010
Conditions at: HBBA (BUJUMBURA , BI) observed 1800 UTC 22 March 2019
Temperature: 26.0°C (79°F)
Dewpoint: 23.0°C (73°F) [RH = 84%]
Pressure (altimeter): 29.82 inches Hg (1010.0 mb)
Winds: from the S (180 degrees) at 5 MPH (4 knots; 2.1 m/s)
Visibility: 6 or more miles (10+ km)
Ceiling: 10000 feet AGL
Clouds: few clouds at 2500 feet AGL
few clouds at 3000 feet AGL
broken clouds at 10000 feet AGL
Weather: no significant weather observed at this time

METAR text: HBBA 221700Z 00000KT 9999 FEW025TCU FEW030CB BKN10027/23 Q1009
Conditions at: HBBA (BUJUMBURA , BI) observed 1700 UTC 22 March 2019
Temperature: 27.0°C (81°F)
Dewpoint: 23.0°C (73°F) [RH = 79%]
Pressure (altimeter): 29.79 inches Hg (1009.0 mb)
Winds: calm
Visibility: 6 or more miles (10+ km)
Ceiling: at least 12,000 feet AGL
Clouds: few clouds at 2500 feet AGL
few clouds at 3000 feet AGL
Weather: no significant weather observed at this time

METAR text: HBBA 221600Z 36008KT 9999 FEW030TCU FEW035CB BKN100 29/22 Q1009
Conditions at: HBBA (BUJUMBURA , BI) observed 1600 UTC 22 March 2019
Temperature: 29.0°C (84°F)
Dewpoint: 22.0°C (72°F) [RH = 66%]
Pressure (altimeter): 29.79 inches Hg (1009.0 mb)
Winds: from the N (360 degrees) at 9 MPH (8 knots; 4.1 m/s)
Visibility: 6 or more miles (10+ km)
Ceiling: 10000 feet AGL
Clouds: few clouds at 3000 feet AGL
few clouds at 3500 feet AGL
broken clouds at 10000 feet AGL
Weather: no significant weather observed at this time

METAR text: HBBA 221500Z 18002KT 9999 FEW025TCU FEW030CB SCT100 30/21 Q1008
Conditions at: HBBA (BUJUMBURA , BI) observed 1500 UTC 22 March 2019
Temperature: 30.0°C (86°F)
Dewpoint: 21.0°C (70°F) [RH = 59%]
Pressure (altimeter): 29.76 inches Hg (1008.0 mb)
Winds: from the S (180 degrees) at 2 MPH (2 knots; 1.0 m/s)
Visibility: 6 or more miles (10+ km)
Ceiling: at least 12,000 feet AGL
Clouds: few clouds at 2500 feet AGL
few clouds at 3000 feet AGL
scattered clouds at 10000 feet AGL
Weather: no significant weather observed at this time

METAR text: HBBA 221300Z 18006KT 9999 SCT030TCU 30/19 Q1009 NOSIG
Conditions at: HBBA (BUJUMBURA , BI) observed 1300 UTC 22 March 2019
Temperature: 30.0°C (86°F)
Dewpoint: 19.0°C (66°F) [RH = 52%]
Pressure (altimeter): 29.79 inches Hg (1009.0 mb)
Winds: from the S (180 degrees) at 7 MPH (6 knots; 3.1 m/s)
Visibility: 6 or more miles (10+ km)
Ceiling: at least 12,000 feet AGL
Clouds: scattered clouds at 3000 feet AGL
Weather: no significant weather observed at this time

METAR text: HBBA 221200Z 22006KT 9999 SCT030TCU FEW035CB 32/17 Q1010 NOSIG
Conditions at: HBBA (BUJUMBURA , BI) observed 1200 UTC 22 March 2019
Temperature: 32.0°C (90°F)
Dewpoint: 17.0°C (63°F) [RH = 41%]
Pressure (altimeter): 29.82 inches Hg (1010.0 mb)
Winds: from the SW (220 degrees) at 7 MPH (6 knots; 3.1 m/s)
Visibility: 6 or more miles (10+ km)
Ceiling: at least 12,000 feet AGL
Clouds: scattered clouds at 3000 feet AGL
few clouds at 3500 feet AGL
Weather: no significant weather observed at this time

Forecast for: HBBA (BUJUMBURA , BI)
Text: TAF HBBA 231700Z 2318/2424 36004KT 9999 FEW030 BKN100
Forecast period: 1800 UTC 23 March 2019 to 0700 UTC 24 March 2019
Forecast type: FROM: standard forecast or significant change
Winds: from the N (360 degrees) at 5 MPH (4 knots; 2.1 m/s)
Visibility: 6 or more miles 10+ km)
Ceiling: 10000 feet AGL
Clouds: few clouds at 3000 feet AGL
broken clouds at 10000 feet AGL
Weather: no significant weather forecast for this period
Text: BECMG 2407/2409 18010G20KT 9999 FEW025CB SCT100
Forecast period: 0700 to 1800 UTC 24 March 2019
Forecast type: BECOMING: Conditions expected to become as follows by 0900 UTC 24 March 2019
Winds: from the S (180 degrees) at 12 MPH (10 knots; 5.1 m/s)
gusting to 23 MPH (20 knots; 10.3 m/s)
Visibility: 6 or more miles 10+ km)
Ceiling: at least 12,000 feet AGL
Clouds: few clouds at 2500 feet AGL
scattered clouds at 10000 feet AGL
Weather: no significant weather forecast for this period
Text: PROB30
Forecast period: 1100 to 1700 UTC 24 March 2019
Forecast type: TEMPORARY: The following changes expected for less than half the time period
Winds: from the E (80 degrees) at 17 MPH (15 knots; 7.7 m/s)
gusting to 30 MPH (26 knots; 13.4 m/s)
Visibility: 3 miles (5 km)
Ceiling: 10000 feet AGL
Clouds: scattered clouds at 2500 feet AGL
broken clouds at 10000 feet AGL
Weather: TSRA SHRA  (rain associated with thunderstorm(s), rain showers)
Text: TEMPO 2411/2417 08015G26KT 5000 TSRA OR SHRA SCT025CB BKN100
Forecast period: 1800 UTC 24 March 2019 to 0000 UTC 25 March 2019
Forecast type: BECOMING: Conditions expected to become as follows by 2000 UTC 24 March 2019
Winds: calm
Visibility: 6 or more miles 10+ km)
Ceiling: 10000 feet AGL
Clouds: broken clouds at 10000 feet AGL
Weather: no significant weather forecast for this period